Huvudsida
METAR-TAF:

METAR-TAF

Flygplatser :

Vilhelmina flygplats

Vilhelmina, Sverige

latitud: 64-34-44N, longitud: 016-50-00E, höjd: 347 m

Aktuellt väderrapport

Denna rapport gjordes för 35 minuter sedan, klockan 16:20 UTC
Vind 6 kt från väst/sydväst
Temperatur 0°C
Fuktighet 69%
Tryck 1005 hPa
Sikt 10 km eller mer

METAR: ESNV 251620Z AUTO 24006KT 9999 FEW066/// M00/M05 Q1005

Tid: 17:55 (16:55 UTC)


TAF: saknas

Aktuella väderrapporter och prognoser från 4000 flygplatser (METAR- och TAF-rapporter).

De tillgängliga stationerna syns som gula och röda prickar på kartan.

För musen över prickarna för att se namnen på stationerna.

Klicka sedan för att få väderrapporter och prognoser.

För att ändra kartan: Klicka på de gröna knapparna med ett svart kors på för att zooma in; den gröna knappen med ett streck på för att zooma ut; eller på de gröna pilarna för angränsande kartor.


METAR-TAF: